Terminal Aerodrome Forecast
Issued by NWS Austin/San Antonio, TX

Current Version | Previous Version | Text Only | Print | Product List | Glossary On
Versions: 1 2 3 4 5 6 7 8 9 10 11 12 13 14 15 16
000
FTUS44 KEWX 291200 AAA
TAFAUS
TAF AMD
KAUS 291210Z 2912/3018 18005KT 1/2SM FG VV002
      TEMPO 2912/2915 1/4SM FG
     FM291600 27004KT P6SM FEW006 SCT100 SCT250
     FM292000 01005KT P6SM BKN100
     FM292200 01015KT P6SM BKN100
     FM301600 02012KT P6SM SCT030 BKN100=

USA.gov is the U.S. government's official web portal to all federal, state and local government web resources and services.